Talca, Chile
Current Conditions -  °F | °C
As of 6:00 PM on Tuesday 21 Oct 2014 (Local Time) from SCIC Reporting Station
Clear Clear  
Wind Chill: 84°   Ceiling: Unl
Heat Index: 84°   Visibility: 6mi
Dew Point: 59°   Wind: 8mph
Humidity: 42%   Direction: 170°S
Pressure: 29.88"   Gusts: NA
Location:  35.42°S, 71.66°W
Report Text: SCIC 212100Z 17007KT 140V220 CAVOK 29/15 Q1012
Loading
Personal Weather Stations






























Interactive Weather Map
Tropical Storm Tracking
New forecast layout! Learn more

10-Day Weather Forecast

Advertisements
Track Severe Weather on mobile